Time;durP1;ratioP1;P1;durP2;ratioP2;P2;SDS_P1;SDS_P2;PMS_P1;PMS_P2;Temp;Humidity;BMP_temperature;BMP_pressure;BME280_temperature;BME280_humidity;BME280_pressure;Samples;Min_cycle;Max_cycle;Signal;HPM_P1;HPM_P2
2023/10/31 00:00:26;;;;;;;16.20;11.00;;;;;;;12.05;92.75;99341.24;109048;278;38725;-67
2023/10/31 00:03:20;;;;;;;13.50;9.80;;;;;;;12.01;92.72;99335.20;109121;277;39459;-72
2023/10/31 00:05:54;;;;;;;13.60;10.50;;;;;;;11.99;92.89;99329.55;109082;277;38644;-72
2023/10/31 00:08:28;;;;;;;14.50;9.40;;;;;;;12.00;92.98;99320.42;109096;278;38379;-72
2023/10/31 00:11:06;;;;;;;16.40;10.50;;;;;;;12.01;92.93;99325.07;109085;277;38490;-72
2023/10/31 00:13:40;;;;;;;16.00;10.70;;;;;;;12.01;92.99;99327.86;109116;278;38527;-72
2023/10/31 00:16:14;;;;;;;14.80;10.20;;;;;;;12.00;92.97;99317.05;109098;277;39615;-73
2023/10/31 00:18:48;;;;;;;15.00;9.30;;;;;;;11.97;92.73;99309.36;109076;277;39725;-69
2023/10/31 00:21:24;;;;;;;14.20;9.20;;;;;;;11.96;92.75;99310.00;109043;277;40092;-69
2023/10/31 00:23:58;;;;;;;15.50;10.50;;;;;;;11.96;92.85;99300.19;109095;277;38209;-68
2023/10/31 00:26:40;;;;;;;13.90;9.80;;;;;;;11.97;93.02;99298.21;109101;277;38221;-68
2023/10/31 00:29:19;;;;;;;14.80;9.20;;;;;;;11.95;92.88;99292.93;109074;277;39671;-68
2023/10/31 00:32:00;;;;;;;13.90;9.10;;;;;;;11.91;92.88;99291.73;109033;277;38735;-68
2023/10/31 00:34:37;;;;;;;12.50;8.90;;;;;;;11.89;92.82;99291.70;109041;277;38861;-72
2023/10/31 00:37:12;;;;;;;14.70;9.40;;;;;;;11.88;92.88;99292.42;109080;277;39248;-73
2023/10/31 00:39:47;;;;;;;18.40;10.40;;;;;;;11.87;93.03;99289.67;109092;277;40253;-72
2023/10/31 00:42:21;;;;;;;14.20;9.20;;;;;;;11.85;92.85;99283.89;109102;277;40116;-70
2023/10/31 00:44:56;;;;;;;13.80;8.80;;;;;;;11.84;93.14;99282.73;108937;277;188475;-69
2023/10/31 00:47:30;;;;;;;13.60;9.00;;;;;;;11.85;93.10;99283.01;109064;277;38510;-72
2023/10/31 00:50:05;;;;;;;14.00;8.40;;;;;;;11.86;93.15;99283.64;109039;277;38141;-72
2023/10/31 00:52:39;;;;;;;12.00;8.50;;;;;;;11.85;93.29;99271.31;109050;277;38405;-68
2023/10/31 00:55:14;;;;;;;12.30;8.40;;;;;;;11.84;93.23;99262.25;109041;277;38223;-68
2023/10/31 00:57:48;;;;;;;13.80;8.60;;;;;;;11.81;93.15;99250.55;109082;277;38215;-74
2023/10/31 01:00:25;;;;;;;15.20;8.20;;;;;;;11.78;93.30;99246.20;109023;277;38867;-72
2023/10/31 01:03:00;;;;;;;12.40;7.90;;;;;;;11.79;93.56;99240.85;109001;277;39754;-72
2023/10/31 01:05:36;;;;;;;11.40;7.60;;;;;;;11.82;93.60;99235.48;109049;277;39359;-73
2023/10/31 01:08:10;;;;;;;12.80;8.60;;;;;;;11.83;93.61;99228.09;109056;277;38836;-72
2023/10/31 01:10:46;;;;;;;13.50;8.20;;;;;;;11.83;93.55;99223.55;109045;277;39337;-72
2023/10/31 01:13:21;;;;;;;12.30;8.10;;;;;;;11.84;93.50;99220.19;109084;277;39839;-73
2023/10/31 01:15:55;;;;;;;10.60;7.40;;;;;;;11.84;93.65;99213.52;109045;277;38350;-73
2023/10/31 01:18:30;;;;;;;10.40;7.60;;;;;;;11.85;93.56;99201.40;109043;277;38478;-72
2023/10/31 01:21:04;;;;;;;11.10;8.10;;;;;;;11.84;93.65;99187.83;109027;277;39615;-72
2023/10/31 01:23:38;;;;;;;10.50;7.20;;;;;;;11.85;93.78;99181.16;109060;277;38277;-72
2023/10/31 01:26:12;;;;;;;9.90;6.70;;;;;;;11.86;93.80;99181.56;109007;277;38450;-72
2023/10/31 01:28:54;;;;;;;9.90;6.80;;;;;;;11.88;93.74;99172.58;109093;277;39863;-69
2023/10/31 01:31:36;;;;;;;12.00;7.80;;;;;;;11.90;93.62;99166.36;109036;277;38616;-68
2023/10/31 01:34:16;;;;;;;12.50;7.60;;;;;;;11.91;93.84;99175.71;109043;277;38479;-69
2023/10/31 01:36:58;;;;;;;11.90;7.80;;;;;;;11.91;93.81;99180.79;109000;277;38866;-69
2023/10/31 01:39:39;;;;;;;12.50;6.60;;;;;;;11.90;93.66;99177.86;108982;277;38726;-69
2023/10/31 01:42:21;;;;;;;9.70;6.40;;;;;;;11.91;93.70;99176.05;108977;277;39413;-68
2023/10/31 01:44:55;;;;;;;10.50;6.90;;;;;;;11.90;93.60;99172.64;109032;277;38571;-72
2023/10/31 01:47:29;;;;;;;9.60;7.40;;;;;;;11.88;93.65;99182.02;109019;277;38458;-73
2023/10/31 01:50:03;;;;;;;10.50;6.90;;;;;;;11.88;93.70;99180.95;109020;277;38356;-73
2023/10/31 01:52:40;;;;;;;10.60;6.50;;;;;;;11.90;93.79;99167.23;109041;277;38471;-72
2023/10/31 01:55:14;;;;;;;10.40;7.20;;;;;;;11.93;93.94;99151.52;109005;277;38501;-72
2023/10/31 01:57:49;;;;;;;10.30;6.50;;;;;;;11.91;93.85;99136.72;109033;277;38359;-72
2023/10/31 02:00:23;;;;;;;10.10;6.80;;;;;;;11.92;93.92;99124.28;109049;277;40180;-72
2023/10/31 02:03:02;;;;;;;10.50;6.50;;;;;;;11.93;93.96;99097.62;109039;277;38178;-73
2023/10/31 02:05:37;;;;;;;9.20;5.90;;;;;;;11.94;94.01;99088.65;109054;277;38731;-73
2023/10/31 02:08:11;;;;;;;9.30;7.00;;;;;;;11.95;94.08;99090.66;109026;277;38462;-69
2023/10/31 02:10:48;;;;;;;9.80;6.70;;;;;;;11.97;93.87;99076.77;108917;277;38151;-68
2023/10/31 02:13:34;;;;;;;11.60;6.60;;;;;;;11.95;94.10;99068.71;109049;277;38225;-67
2023/10/31 02:16:19;;;;;;;11.20;6.70;;;;;;;11.93;93.92;99062.20;109066;277;38484;-68
2023/10/31 02:18:54;;;;;;;17.50;6.80;;;;;;;11.94;93.92;99056.50;109103;277;39451;-72
2023/10/31 02:21:31;;;;;;;9.80;6.20;;;;;;;11.97;94.04;99055.96;109073;277;39053;-73
2023/10/31 02:24:06;;;;;;;9.80;6.40;;;;;;;11.99;94.14;99053.55;109130;277;38293;-69
2023/10/31 02:26:43;;;;;;;11.00;6.40;;;;;;;12.00;94.24;99047.23;109078;278;38284;-68
2023/10/31 02:29:20;;;;;;;9.50;5.90;;;;;;;12.03;94.29;99039.46;109087;277;38250;-73
2023/10/31 02:31:55;;;;;;;12.40;5.90;;;;;;;12.06;94.13;99042.95;109010;278;38464;-72
2023/10/31 02:34:29;;;;;;;9.00;5.90;;;;;;;12.08;94.20;99036.02;109056;277;39653;-69
2023/10/31 02:37:03;;;;;;;11.00;6.10;;;;;;;12.10;94.17;99034.11;109056;278;38270;-68
2023/10/31 02:39:38;;;;;;;9.20;5.80;;;;;;;12.10;94.00;99032.20;109056;278;38153;-72
2023/10/31 02:42:14;;;;;;;8.90;6.20;;;;;;;12.11;94.04;99026.37;109002;277;38308;-72
2023/10/31 02:44:49;;;;;;;9.20;6.00;;;;;;;12.14;94.06;99034.19;108912;278;174975;-72
2023/10/31 02:47:23;;;;;;;10.80;5.80;;;;;;;12.18;93.98;99033.29;109032;278;38444;-72
2023/10/31 02:49:57;;;;;;;9.00;6.00;;;;;;;12.20;93.94;99019.14;108515;278;615938;-73
2023/10/31 02:52:31;;;;;;;11.60;5.40;;;;;;;12.20;93.97;99015.29;109085;278;40050;-69
2023/10/31 02:55:05;;;;;;;11.50;5.90;;;;;;;12.22;94.00;99010.83;108883;278;172233;-68
2023/10/31 02:57:39;;;;;;;8.60;4.90;;;;;;;12.25;94.08;99011.09;109043;278;38847;-75
2023/10/31 03:00:15;;;;;;;10.60;5.60;;;;;;;12.29;93.94;99005.75;108959;278;39548;-72
2023/10/31 03:02:49;;;;;;;9.70;5.40;;;;;;;12.33;93.96;98993.30;109068;277;38480;-72
2023/10/31 03:05:25;;;;;;;13.30;6.10;;;;;;;12.33;93.72;98978.58;109047;277;38990;-72
2023/10/31 03:08:00;;;;;;;8.40;5.40;;;;;;;12.33;93.60;98971.08;109026;278;38330;-70
2023/10/31 03:10:33;;;;;;;7.60;5.30;;;;;;;12.34;93.56;98967.65;108959;278;38403;-68
2023/10/31 03:13:08;;;;;;;8.20;5.40;;;;;;;12.36;93.58;98964.89;109014;278;39348;-72
2023/10/31 03:15:42;;;;;;;7.10;5.90;;;;;;;12.37;93.58;98963.11;108963;277;38172;-73
2023/10/31 03:18:19;;;;;;;10.00;4.90;;;;;;;12.37;93.57;98963.77;109107;278;38255;-69
2023/10/31 03:20:54;;;;;;;8.60;5.10;;;;;;;12.37;93.42;98963.59;109140;277;38306;-68
2023/10/31 03:23:28;;;;;;;8.90;5.10;;;;;;;12.41;93.52;98953.38;109059;277;39328;-70
2023/10/31 03:26:05;;;;;;;9.00;5.40;;;;;;;12.47;93.63;98956.85;109096;278;38302;-68
2023/10/31 03:28:41;;;;;;;8.90;5.10;;;;;;;12.51;93.64;98953.57;109085;278;38250;-72
2023/10/31 03:31:15;;;;;;;9.40;5.40;;;;;;;12.53;93.37;98948.52;109084;278;38721;-72
2023/10/31 03:33:49;;;;;;;11.50;5.40;;;;;;;12.55;93.32;98942.23;109020;277;175340;-73
2023/10/31 03:36:30;;;;;;;10.80;5.50;;;;;;;12.58;93.16;98944.15;109053;277;40076;-72
2023/10/31 03:39:04;;;;;;;8.60;5.20;;;;;;;12.59;93.08;98937.81;109113;278;38986;-73
2023/10/31 03:41:42;;;;;;;7.60;5.40;;;;;;;12.60;93.13;98929.64;109055;278;38154;-72
2023/10/31 03:44:21;;;;;;;9.00;5.20;;;;;;;12.61;92.89;98918.06;109083;277;38688;-72
2023/10/31 03:46:56;;;;;;;8.10;4.10;;;;;;;12.63;92.86;98913.67;108969;277;38608;-72
2023/10/31 03:49:38;;;;;;;7.30;4.70;;;;;;;12.66;92.72;98908.98;109020;277;39687;-68
2023/10/31 03:52:15;;;;;;;9.60;5.00;;;;;;;12.69;92.62;98898.26;108951;277;38511;-67
2023/10/31 03:54:49;;;;;;;7.70;4.80;;;;;;;12.71;92.40;98889.06;108914;277;39579;-72
2023/10/31 03:57:23;;;;;;;8.70;4.80;;;;;;;12.72;92.43;98873.36;109015;277;39314;-68
2023/10/31 03:59:58;;;;;;;6.90;4.70;;;;;;;12.76;92.41;98871.84;108856;277;175279;-68
2023/10/31 04:02:35;;;;;;;7.10;4.70;;;;;;;12.79;92.26;98874.09;108961;277;38505;-73
2023/10/31 04:05:11;;;;;;;7.10;5.00;;;;;;;12.82;91.94;98867.42;108970;277;37945;-72
2023/10/31 04:07:46;;;;;;;7.30;4.00;;;;;;;12.84;91.97;98867.95;109043;277;38280;-70
2023/10/31 04:10:23;;;;;;;8.60;4.10;;;;;;;12.87;91.78;98861.30;108968;277;39405;-69
2023/10/31 04:12:57;;;;;;;7.00;4.20;;;;;;;12.89;91.53;98850.46;108981;277;38262;-73
2023/10/31 04:15:34;;;;;;;6.90;4.50;;;;;;;12.92;91.31;98853.95;108875;277;39369;-72
2023/10/31 04:18:10;;;;;;;8.20;4.00;;;;;;;12.93;91.16;98853.86;109001;277;39535;-68
2023/10/31 04:20:44;;;;;;;5.90;4.40;;;;;;;12.96;91.26;98852.92;108972;277;39921;-68
2023/10/31 04:23:24;;;;;;;9.20;4.30;;;;;;;13.00;91.18;98846.01;108977;277;38566;-72
2023/10/31 04:25:58;;;;;;;7.10;4.20;;;;;;;13.02;90.94;98837.63;108979;277;39871;-73
2023/10/31 04:28:35;;;;;;;8.40;4.30;;;;;;;13.04;90.62;98821.89;109025;277;39622;-72
2023/10/31 04:31:09;;;;;;;9.20;4.60;;;;;;;13.06;90.56;98823.14;108967;277;38245;-72
2023/10/31 04:33:45;;;;;;;7.50;4.10;;;;;;;13.08;90.45;98828.64;108971;277;38158;-69
2023/10/31 04:36:22;;;;;;;8.00;3.90;;;;;;;13.07;90.15;98827.10;108907;277;39600;-69
2023/10/31 04:39:00;;;;;;;8.50;4.50;;;;;;;13.09;90.12;98825.55;108929;277;39318;-68
2023/10/31 04:41:42;;;;;;;7.50;4.40;;;;;;;13.12;89.68;98814.70;108903;277;40111;-67
2023/10/31 04:44:22;;;;;;;7.50;4.50;;;;;;;13.14;89.45;98808.22;109008;277;39613;-70
2023/10/31 04:46:58;;;;;;;7.80;3.90;;;;;;;13.15;89.37;98802.51;108923;277;38749;-70
2023/10/31 04:49:33;;;;;;;12.60;4.70;;;;;;;13.17;89.37;98794.69;108974;277;38216;-73
2023/10/31 04:52:09;;;;;;;7.70;3.90;;;;;;;13.19;89.14;98788.73;108977;277;38261;-72
2023/10/31 04:54:45;;;;;;;8.70;3.90;;;;;;;13.22;88.99;98781.39;108937;277;38495;-71
2023/10/31 04:57:19;;;;;;;8.10;4.00;;;;;;;13.26;88.62;98779.72;108993;277;40060;-70
2023/10/31 04:59:57;;;;;;;6.00;3.90;;;;;;;13.29;88.47;98772.30;108943;277;38442;-68
2023/10/31 05:02:33;;;;;;;5.70;3.80;;;;;;;13.30;88.33;98764.67;109008;277;38206;-72
2023/10/31 05:05:10;;;;;;;8.00;3.50;;;;;;;13.33;88.07;98760.10;108956;277;38681;-73
2023/10/31 05:07:50;;;;;;;7.60;3.80;;;;;;;13.36;87.58;98759.67;108959;277;39708;-72
2023/10/31 05:10:27;;;;;;;5.70;3.90;;;;;;;13.39;87.50;98748.39;108940;277;38916;-72
2023/10/31 05:13:03;;;;;;;6.30;3.90;;;;;;;13.41;87.34;98739.48;108850;277;188440;-68
2023/10/31 05:15:41;;;;;;;8.00;4.20;;;;;;;13.43;87.17;98729.73;108926;277;38732;-68
2023/10/31 05:18:16;;;;;;;6.80;3.80;;;;;;;13.44;86.80;98727.16;109012;277;38164;-72
2023/10/31 05:20:52;;;;;;;5.40;3.70;;;;;;;13.48;86.94;98729.17;108968;277;38328;-73
2023/10/31 05:23:28;;;;;;;4.90;3.70;;;;;;;13.52;86.39;98733.30;108963;277;38711;-68
2023/10/31 05:26:14;;;;;;;7.60;3.90;;;;;;;13.54;86.37;98724.68;108942;277;38310;-68
2023/10/31 05:28:50;;;;;;;9.20;4.60;;;;;;;13.55;86.35;98725.32;108958;277;39214;-72
2023/10/31 05:31:25;;;;;;;12.20;4.50;;;;;;;13.55;86.18;98728.43;108998;277;38256;-74
2023/10/31 05:34:03;;;;;;;6.30;3.70;;;;;;;13.57;85.54;98721.34;109061;277;38258;-71
2023/10/31 05:36:44;;;;;;;8.60;3.80;;;;;;;13.58;85.52;98711.19;108990;277;38819;-70
2023/10/31 05:39:21;;;;;;;6.50;3.70;;;;;;;13.60;85.14;98716.34;108983;277;38239;-71
2023/10/31 05:42:02;;;;;;;8.00;4.10;;;;;;;13.62;85.07;98716.84;108962;277;38687;-71
2023/10/31 05:44:36;;;;;;;6.80;3.80;;;;;;;13.64;84.71;98723.93;109020;277;38422;-72
2023/10/31 05:47:12;;;;;;;8.90;4.10;;;;;;;13.66;84.77;98717.98;108977;277;38163;-72
2023/10/31 05:49:53;;;;;;;8.10;4.00;;;;;;;13.71;84.28;98711.46;109016;277;38902;-68
2023/10/31 05:52:33;;;;;;;7.00;3.80;;;;;;;13.75;83.92;98720.85;108977;277;38959;-69
2023/10/31 05:55:09;;;;;;;7.70;4.20;;;;;;;13.77;83.50;98718.86;108933;277;38773;-68
2023/10/31 05:57:46;;;;;;;7.10;3.90;;;;;;;13.79;83.34;98707.86;108983;277;38498;-69
2023/10/31 06:00:22;;;;;;;8.00;3.40;;;;;;;13.81;83.39;98703.31;108962;277;38357;-68
2023/10/31 06:02:59;;;;;;;9.70;3.90;;;;;;;13.85;83.42;98709.53;108966;277;39453;-68
2023/10/31 06:05:45;;;;;;;5.80;3.80;;;;;;;13.86;83.09;98712.54;108977;277;38265;-68
2023/10/31 06:08:21;;;;;;;8.90;3.80;;;;;;;13.88;83.14;98701.34;108862;277;172145;-72
2023/10/31 06:10:56;;;;;;;10.00;4.00;;;;;;;13.88;82.78;98704.31;108948;277;38714;-72
2023/10/31 06:13:31;;;;;;;6.70;3.70;;;;;;;13.90;82.28;98710.88;108997;277;39624;-69
2023/10/31 06:16:07;;;;;;;7.90;4.30;;;;;;;13.93;82.31;98710.59;108977;277;38528;-68
2023/10/31 06:18:44;;;;;;;5.90;3.60;;;;;;;13.96;81.89;98716.03;108979;277;39343;-68
2023/10/31 06:21:24;;;;;;;6.30;3.80;;;;;;;13.98;81.87;98716.73;108892;277;38778;-68
2023/10/31 06:24:06;;;;;;;8.50;4.80;;;;;;;13.98;81.98;98704.61;109006;277;39408;-68
2023/10/31 06:26:49;;;;;;;10.40;3.90;;;;;;;13.99;81.12;98707.72;108908;277;38441;-67
2023/10/31 06:29:26;;;;;;;8.10;3.80;;;;;;;14.04;81.20;98714.69;108963;277;38290;-69
2023/10/31 06:32:07;;;;;;;6.80;4.00;;;;;;;14.07;81.07;98709.48;108943;277;38407;-68
2023/10/31 06:34:46;;;;;;;7.20;3.40;;;;;;;14.09;81.76;98712.34;108954;277;39284;-72
2023/10/31 06:37:18;;;;;;;;;;;;;;;14.09;82.14;98706.92;108973;277;38607;-71
2023/10/31 06:39:54;;;;;;;6.70;3.80;;;;;;;14.06;82.38;98706.81;108976;277;38530;-72
2023/10/31 06:42:29;;;;;;;6.90;3.50;;;;;;;14.08;82.27;98700.32;109002;277;39637;-72
2023/10/31 06:45:03;;;;;;;6.90;3.70;;;;;;;14.09;82.43;98687.77;108928;277;38573;-72
2023/10/31 06:47:38;;;;;;;8.30;3.90;;;;;;;14.11;82.26;98691.48;109017;277;38750;-69
2023/10/31 06:50:14;;;;;;;6.10;3.40;;;;;;;14.12;82.33;98693.37;108927;277;38468;-68
2023/10/31 06:52:50;;;;;;;8.70;3.40;;;;;;;14.13;82.20;98693.63;108983;277;39656;-72
2023/10/31 06:55:25;;;;;;;9.10;3.70;;;;;;;14.15;82.01;98699.28;109003;277;38455;-72
2023/10/31 06:57:59;;;;;;;7.80;3.70;;;;;;;14.17;82.33;98707.30;108978;277;38444;-72
2023/10/31 07:00:35;;;;;;;7.60;4.10;;;;;;;14.20;82.57;98704.29;108974;277;38624;-72
2023/10/31 07:03:14;;;;;;;7.20;3.30;;;;;;;14.19;82.87;98695.40;108943;277;38787;-72
2023/10/31 07:05:52;;;;;;;6.70;3.60;;;;;;;14.18;82.92;98701.77;108971;277;39920;-72
2023/10/31 07:08:26;;;;;;;6.90;3.80;;;;;;;14.20;82.99;98698.67;109019;277;38248;-72
2023/10/31 07:11:01;;;;;;;5.80;3.50;;;;;;;14.23;83.06;98698.63;108993;277;38216;-73
2023/10/31 07:13:44;;;;;;;7.30;3.60;;;;;;;14.25;83.18;98698.14;109011;277;38630;-72
2023/10/31 07:16:20;;;;;;;5.50;3.60;;;;;;;14.25;83.11;98702.27;108985;277;38155;-71
2023/10/31 07:18:55;;;;;;;7.30;3.30;;;;;;;14.25;82.89;98691.44;108974;277;38346;-72
2023/10/31 07:21:29;;;;;;;9.30;3.20;;;;;;;14.26;82.49;98689.09;108964;277;38304;-71
2023/10/31 07:24:04;;;;;;;8.40;3.60;;;;;;;14.28;82.81;98683.97;108967;277;38543;-73
2023/10/31 07:26:39;;;;;;;8.20;4.10;;;;;;;14.31;82.26;98681.86;108970;277;38162;-72
2023/10/31 07:29:13;;;;;;;9.10;4.00;;;;;;;14.33;82.14;98679.00;109019;277;38450;-70
2023/10/31 07:31:50;;;;;;;6.80;3.40;;;;;;;14.35;82.01;98666.20;108961;277;40095;-70
2023/10/31 07:34:24;;;;;;;6.30;3.70;;;;;;;14.38;81.90;98656.86;108986;277;38818;-68
2023/10/31 07:37:03;;;;;;;8.90;3.50;;;;;;;14.40;81.19;98660.92;108968;277;39620;-67
2023/10/31 07:39:43;;;;;;;5.70;3.80;;;;;;;14.42;80.76;98652.45;109001;277;38227;-69
2023/10/31 07:42:21;;;;;;;5.60;3.40;;;;;;;14.43;80.82;98658.70;109001;277;37971;-71
2023/10/31 07:44:55;;;;;;;5.60;3.70;;;;;;;14.43;80.81;98646.14;108947;277;39631;-68
2023/10/31 07:47:32;;;;;;;6.40;3.00;;;;;;;14.42;80.85;98660.39;108981;277;38235;-69
2023/10/31 07:50:09;;;;;;;6.10;3.40;;;;;;;14.42;80.60;98655.48;108985;277;38461;-68
2023/10/31 07:52:46;;;;;;;6.30;3.60;;;;;;;14.43;80.11;98666.66;109000;277;39653;-72
2023/10/31 07:55:26;;;;;;;7.60;3.70;;;;;;;14.42;80.18;98666.91;108972;277;38258;-73
2023/10/31 07:58:06;;;;;;;8.00;3.90;;;;;;;14.41;80.15;98669.24;108989;277;38262;-73
2023/10/31 08:00:44;;;;;;;9.20;3.60;;;;;;;14.41;80.45;98664.16;108971;277;38209;-69
2023/10/31 08:03:19;;;;;;;6.50;3.60;;;;;;;14.42;80.77;98648.65;109089;277;38483;-73
2023/10/31 08:05:55;;;;;;;8.20;3.60;;;;;;;14.42;80.84;98638.14;108960;277;38358;-76
2023/10/31 08:08:29;;;;;;;6.90;3.80;;;;;;;14.42;81.07;98622.48;108991;277;38309;-69
2023/10/31 08:11:10;;;;;;;9.30;3.50;;;;;;;14.44;81.28;98637.29;108990;277;39032;-68
2023/10/31 08:13:46;;;;;;;9.40;3.50;;;;;;;14.45;81.35;98626.65;109001;277;38258;-73
2023/10/31 08:16:25;;;;;;;6.70;3.70;;;;;;;14.47;81.04;98631.05;108959;277;38163;-73
2023/10/31 08:19:00;;;;;;;8.20;3.70;;;;;;;14.50;80.87;98636.48;108986;277;39280;-69
2023/10/31 08:21:40;;;;;;;8.90;3.50;;;;;;;14.52;81.08;98642.25;108961;277;38466;-68
2023/10/31 08:24:18;;;;;;;7.30;3.30;;;;;;;14.54;80.57;98639.16;108966;277;38167;-70
2023/10/31 08:26:57;;;;;;;5.30;3.40;;;;;;;14.58;80.73;98638.93;108951;277;38284;-70
2023/10/31 08:29:41;;;;;;;5.30;2.90;;;;;;;14.63;80.65;98634.33;108972;277;38333;-69
2023/10/31 08:32:32;;;;;;;5.70;3.50;;;;;;;14.68;80.58;98628.69;108974;277;38805;-71
2023/10/31 08:35:07;;;;;;;6.00;3.20;;;;;;;14.70;79.74;98617.91;108950;277;38243;-68
2023/10/31 08:37:41;;;;;;;8.70;3.50;;;;;;;14.73;79.54;98611.59;109004;277;38196;-68
2023/10/31 08:40:18;;;;;;;6.40;3.30;;;;;;;14.76;79.19;98607.61;108966;277;38728;-68
2023/10/31 08:42:55;;;;;;;4.40;2.80;;;;;;;14.81;78.97;98607.19;109011;277;38205;-73
2023/10/31 08:45:29;;;;;;;5.20;3.30;;;;;;;14.88;78.92;98607.51;108867;277;174962;-73
2023/10/31 08:48:08;;;;;;;5.50;3.40;;;;;;;14.96;78.81;98608.09;108974;277;39327;-69
2023/10/31 08:50:45;;;;;;;6.00;3.20;;;;;;;15.03;78.49;98613.23;108979;277;38959;-68
2023/10/31 08:53:20;;;;;;;7.90;3.50;;;;;;;15.10;78.01;98616.88;109024;277;38447;-73
2023/10/31 08:56:00;;;;;;;6.70;3.50;;;;;;;15.16;77.57;98614.44;108958;277;38915;-73
2023/10/31 08:58:35;;;;;;;7.30;2.90;;;;;;;15.20;77.01;98620.04;108971;277;38477;-73
2023/10/31 09:01:10;;;;;;;6.10;2.90;;;;;;;15.26;76.77;98606.02;108970;277;38669;-73
2023/10/31 09:03:46;;;;;;;5.40;2.80;;;;;;;15.32;76.53;98610.66;109005;277;38149;-69
2023/10/31 09:06:21;;;;;;;5.50;3.10;;;;;;;15.37;76.50;98602.66;109018;277;38234;-70
2023/10/31 09:08:58;;;;;;;5.30;3.00;;;;;;;15.40;76.12;98602.19;108987;277;38279;-73
2023/10/31 09:11:32;;;;;;;;;;;;;;;15.44;76.03;98604.02;109029;277;38398;-73
2023/10/31 09:14:06;;;;;;;6.00;2.80;;;;;;;15.43;75.47;98603.02;108991;277;38262;-68
2023/10/31 09:16:44;;;;;;;6.90;3.20;;;;;;;15.44;74.61;98603.66;108983;277;39264;-69
2023/10/31 09:19:19;;;;;;;6.50;3.00;;;;;;;15.47;74.39;98600.71;108960;277;38323;-69
2023/10/31 09:21:56;;;;;;;7.70;2.80;;;;;;;15.52;74.37;98606.10;108969;277;38756;-68
2023/10/31 09:24:30;;;;;;;7.40;3.00;;;;;;;15.55;74.50;98613.38;109010;277;38196;-69
2023/10/31 09:27:08;;;;;;;5.10;3.10;;;;;;;15.58;74.26;98608.25;108948;277;39571;-69
2023/10/31 09:29:46;;;;;;;7.00;3.20;;;;;;;15.58;73.41;98610.17;108991;277;38737;-73
2023/10/31 09:32:23;;;;;;;5.00;3.00;;;;;;;15.57;73.75;98630.45;109008;277;38282;-72
2023/10/31 09:35:01;;;;;;;4.30;2.90;;;;;;;15.56;73.26;98626.88;108939;277;38466;-75
2023/10/31 09:37:36;;;;;;;11.60;3.00;;;;;;;15.54;73.41;98643.48;108997;277;39473;-75
2023/10/31 09:40:13;;;;;;;9.40;3.30;;;;;;;15.56;73.22;98636.20;108974;277;38911;-74
2023/10/31 09:42:49;;;;;;;4.50;3.30;;;;;;;15.56;73.76;98637.59;109033;277;38593;-73
2023/10/31 09:45:24;;;;;;;7.60;3.30;;;;;;;15.57;73.90;98643.43;108978;277;38273;-73
2023/10/31 09:47:59;;;;;;;7.20;3.30;;;;;;;15.58;73.58;98637.40;108991;277;38783;-69
2023/10/31 09:50:35;;;;;;;6.70;3.90;;;;;;;15.60;74.05;98647.23;108949;277;38385;-69
2023/10/31 09:53:18;;;;;;;5.60;3.10;;;;;;;15.63;74.24;98639.13;109031;277;38151;-73
2023/10/31 09:55:53;;;;;;;6.70;3.10;;;;;;;15.64;73.83;98646.75;108944;277;38499;-76
2023/10/31 09:58:30;;;;;;;6.70;3.50;;;;;;;15.67;73.90;98640.15;109020;277;38353;-73
2023/10/31 10:01:04;;;;;;;4.80;3.10;;;;;;;15.73;73.86;98635.36;109013;277;38908;-72
2023/10/31 10:03:40;;;;;;;5.50;3.80;;;;;;;15.80;73.27;98636.02;108999;277;38173;-68
2023/10/31 10:06:14;;;;;;;6.50;3.10;;;;;;;15.84;72.84;98632.84;108922;277;38267;-68
2023/10/31 10:08:51;;;;;;;8.90;3.30;;;;;;;15.89;72.67;98635.58;108990;277;38178;-74
2023/10/31 10:11:31;;;;;;;6.30;3.30;;;;;;;15.91;72.61;98636.29;109000;277;38221;-73
2023/10/31 10:14:10;;;;;;;5.50;3.30;;;;;;;15.93;72.01;98632.98;108943;277;38403;-73
2023/10/31 10:16:45;;;;;;;6.10;3.30;;;;;;;15.94;72.25;98633.36;108972;277;38440;-73
2023/10/31 10:19:28;;;;;;;8.40;3.10;;;;;;;15.97;71.76;98635.03;108895;277;172070;-69
2023/10/31 10:22:04;;;;;;;8.50;3.40;;;;;;;16.05;72.36;98630.87;108956;277;38188;-69
2023/10/31 10:24:46;;;;;;;6.60;3.50;;;;;;;16.15;72.64;98626.06;109015;277;38142;-73
2023/10/31 10:27:24;;;;;;;4.10;3.30;;;;;;;16.29;72.61;98630.34;109006;277;38315;-73
2023/10/31 10:29:59;;;;;;;8.30;3.30;;;;;;;16.40;71.56;98633.49;108990;277;38455;-69
2023/10/31 10:32:39;;;;;;;5.30;3.10;;;;;;;16.51;71.99;98639.94;108987;277;38161;-73
2023/10/31 10:35:15;;;;;;;6.20;3.60;;;;;;;16.60;71.63;98644.59;108954;277;38710;-73
2023/10/31 10:37:49;;;;;;;8.10;3.40;;;;;;;16.66;71.08;98641.73;108980;277;38277;-73
2023/10/31 10:40:30;;;;;;;4.80;2.80;;;;;;;16.69;70.67;98647.77;108943;277;38208;-74
2023/10/31 10:43:13;;;;;;;7.40;3.70;;;;;;;16.68;70.59;98645.76;109015;277;38472;-69
2023/10/31 10:45:48;;;;;;;6.70;3.60;;;;;;;16.67;70.86;98639.33;108952;277;38309;-68
2023/10/31 10:48:23;;;;;;;7.40;3.00;;;;;;;16.68;71.24;98638.86;109030;277;38982;-68
2023/10/31 10:51:06;;;;;;;6.20;3.40;;;;;;;16.69;71.10;98633.88;108468;278;594414;-68
2023/10/31 10:53:52;;;;;;;7.60;3.00;;;;;;;16.70;70.67;98629.20;108966;277;38296;-68
2023/10/31 10:56:31;;;;;;;5.10;2.90;;;;;;;16.71;70.52;98637.42;108994;277;38269;-70
2023/10/31 10:59:10;;;;;;;4.30;2.70;;;;;;;16.73;70.73;98638.67;108995;277;38366;-72
2023/10/31 11:01:46;;;;;;;4.10;2.40;;;;;;;16.77;70.35;98638.87;108320;277;892634;-73
2023/10/31 11:04:24;;;;;;;4.30;2.50;;;;;;;16.80;70.80;98636.25;108991;277;39314;-72
2023/10/31 11:07:00;;;;;;;9.80;2.90;;;;;;;16.83;70.65;98640.75;108936;277;38129;-72
2023/10/31 11:09:34;;;;;;;5.00;2.10;;;;;;;16.87;70.75;98644.42;109027;277;39957;-68
2023/10/31 11:12:17;;;;;;;5.70;2.00;;;;;;;16.90;71.01;98647.13;108998;277;39323;-68
2023/10/31 11:15:01;;;;;;;5.80;2.20;;;;;;;16.94;70.86;98643.21;108961;277;38161;-73
2023/10/31 11:17:37;;;;;;;6.40;2.90;;;;;;;16.99;70.72;98647.54;108992;277;38880;-73
2023/10/31 11:20:18;;;;;;;5.40;2.20;;;;;;;17.02;70.53;98652.02;108968;277;38238;-73
2023/10/31 11:22:57;;;;;;;4.20;2.80;;;;;;;17.03;70.31;98654.05;109047;277;38575;-68
2023/10/31 11:25:31;;;;;;;4.10;2.40;;;;;;;17.03;70.44;98665.15;108943;277;39455;-68
2023/10/31 11:28:18;;;;;;;4.00;1.80;;;;;;;17.02;70.62;98664.38;108964;277;38439;-72
2023/10/31 11:30:59;;;;;;;3.90;2.10;;;;;;;16.99;70.47;98663.55;108978;277;38239;-72
2023/10/31 11:33:33;;;;;;;7.20;2.60;;;;;;;16.96;70.68;98664.08;108985;277;38757;-72
2023/10/31 11:36:12;;;;;;;5.40;2.00;;;;;;;16.91;70.45;98664.30;108925;277;38170;-73
2023/10/31 11:38:49;;;;;;;4.00;2.20;;;;;;;16.91;71.05;98673.63;108955;277;38421;-68
2023/10/31 11:41:23;;;;;;;4.50;2.60;;;;;;;16.92;70.80;98678.98;108955;277;38386;-68
2023/10/31 11:44:07;;;;;;;7.20;2.60;;;;;;;16.93;71.31;98677.70;109011;277;38239;-73
2023/10/31 11:46:50;;;;;;;7.00;2.60;;;;;;;16.93;71.39;98668.91;108924;277;38485;-73
2023/10/31 11:49:52;;;;;;;3.60;2.10;;;;;;;16.92;71.57;98678.52;109022;277;39782;-68
2023/10/31 11:52:31;;;;;;;3.50;2.40;;;;;;;16.91;72.01;98678.98;109012;277;38192;-73
2023/10/31 11:55:10;;;;;;;2.20;2.00;;;;;;;16.91;72.36;98674.77;108948;277;38620;-73
2023/10/31 11:57:44;;;;;;;4.60;2.20;;;;;;;16.92;72.65;98678.67;108994;277;38193;-72
2023/10/31 12:00:27;;;;;;;4.30;1.90;;;;;;;16.94;72.99;98683.92;108938;277;38593;-74
2023/10/31 12:03:07;;;;;;;3.90;2.10;;;;;;;16.96;73.26;98691.64;109052;277;39355;-68
2023/10/31 12:05:56;;;;;;;7.90;2.50;;;;;;;16.96;73.17;98691.67;108981;277;38500;-68
2023/10/31 12:08:47;;;;;;;2.90;2.20;;;;;;;16.97;73.52;98698.95;109022;277;39426;-72
2023/10/31 12:11:23;;;;;;;5.30;2.50;;;;;;;17.00;73.88;98701.05;108945;277;38261;-74
2023/10/31 12:14:04;;;;;;;3.40;2.30;;;;;;;17.05;73.99;98699.36;109025;277;39339;-73
2023/10/31 12:16:44;;;;;;;4.00;2.00;;;;;;;17.10;73.82;98701.52;108997;277;38475;-74